Time;durP1;ratioP1;P1;durP2;ratioP2;P2;SDS_P1;SDS_P2;PMS_P1;PMS_P2;Temp;Humidity;BMP_temperature;BMP_pressure;BME280_temperature;BME280_humidity;BME280_pressure;Samples;Min_cycle;Max_cycle;Signal;HPM_P1;HPM_P2
2023/02/04 00:01:45;;;;;;;12.10;6.10;;;;;;;2.36;100.00;97238.14;106258;1256;61209;-77
2023/02/04 00:04:11;;;;;;;10.10;4.90;;;;;;;2.36;100.00;97239.74;106238;1253;62339;-78
2023/02/04 00:06:38;;;;;;;8.30;4.50;;;;;;;2.37;100.00;97236.23;106273;1253;73381;-76
2023/02/04 00:09:05;;;;;;;10.40;4.40;;;;;;;2.35;100.00;97235.78;106265;1256;62199;-79
2023/02/04 00:11:31;;;;;;;6.70;3.30;;;;;;;2.34;100.00;97231.80;106035;1254;72583;-78
2023/02/04 00:13:57;;;;;;;8.80;4.00;;;;;;;2.32;100.00;97229.64;106250;1256;61327;-76
2023/02/04 00:16:24;;;;;;;4.10;2.30;;;;;;;2.29;100.00;97228.04;106290;1254;61221;-76
2023/02/04 00:18:50;;;;;;;3.60;1.90;;;;;;;2.29;100.00;97228.45;106283;1254;61218;-76
2023/02/04 00:21:16;;;;;;;7.10;4.10;;;;;;;2.28;100.00;97225.93;106270;1254;61365;-76
2023/02/04 00:23:43;;;;;;;13.90;7.10;;;;;;;2.29;100.00;97227.06;106312;1254;61307;-77
2023/02/04 00:26:09;;;;;;;11.80;6.60;;;;;;;2.28;100.00;97224.12;106303;1254;61339;-79
2023/02/04 00:28:36;;;;;;;4.40;2.50;;;;;;;2.28;100.00;97228.23;106299;1254;63300;-78
2023/02/04 00:31:02;;;;;;;9.00;3.40;;;;;;;2.29;100.00;97230.02;106286;1254;61346;-77
2023/02/04 00:33:28;;;;;;;4.20;2.60;;;;;;;2.31;100.00;97229.77;106279;1254;61345;-77
2023/02/04 00:35:55;;;;;;;8.30;5.10;;;;;;;2.32;100.00;97233.13;106263;1254;61335;-77
2023/02/04 00:38:21;;;;;;;6.00;3.40;;;;;;;2.32;100.00;97234.77;106346;1253;61250;-77
2023/02/04 00:40:48;;;;;;;5.40;2.50;;;;;;;2.31;100.00;97230.42;106300;1255;61336;-77
2023/02/04 00:43:14;;;;;;;4.60;2.30;;;;;;;2.29;100.00;97230.50;106314;1251;61310;-79
2023/02/04 00:45:41;;;;;;;4.50;3.10;;;;;;;2.28;100.00;97227.65;106357;1251;62428;-77
2023/02/04 00:48:07;;;;;;;4.90;2.90;;;;;;;2.25;100.00;97230.52;106326;1251;61339;-77
2023/02/04 00:50:38;;;;;;;4.30;2.90;;;;;;;2.26;100.00;97227.20;106316;1256;61343;-77
2023/02/04 00:53:05;;;;;;;7.40;3.10;;;;;;;2.28;100.00;97220.70;106444;1251;61232;-78
2023/02/04 00:55:32;;;;;;;4.70;3.00;;;;;;;2.31;100.00;97221.71;106336;1256;73525;-77
2023/02/04 00:57:58;;;;;;;4.70;2.80;;;;;;;2.33;100.00;97221.16;106190;1259;70437;-79
2023/02/04 01:00:25;;;;;;;13.30;5.00;;;;;;;2.35;100.00;97217.86;106277;1252;61352;-77
2023/02/04 01:02:51;;;;;;;5.10;2.70;;;;;;;2.36;100.00;97222.31;106365;1253;61227;-79
2023/02/04 01:05:18;;;;;;;7.30;2.50;;;;;;;2.37;100.00;97218.31;106344;1252;61893;-79
2023/02/04 01:07:44;;;;;;;3.90;2.40;;;;;;;2.39;100.00;97212.17;106269;1256;61390;-77
2023/02/04 01:10:10;;;;;;;5.70;3.30;;;;;;;2.41;100.00;97213.25;106281;1254;61330;-79
2023/02/04 01:12:37;;;;;;;3.70;2.80;;;;;;;2.43;100.00;97207.55;106274;1254;61269;-77
2023/02/04 01:15:04;;;;;;;17.40;6.70;;;;;;;2.44;100.00;97208.04;106267;1254;61796;-77
2023/02/04 01:17:30;;;;;;;12.20;5.60;;;;;;;2.45;100.00;97202.64;106326;1254;61362;-77
2023/02/04 01:19:56;;;;;;;9.70;3.30;;;;;;;2.45;100.00;97201.69;106274;1254;61230;-79
2023/02/04 01:22:23;;;;;;;9.80;4.70;;;;;;;2.46;100.00;97200.30;106332;1254;61252;-77
2023/02/04 01:24:49;;;;;;;6.40;3.50;;;;;;;2.47;100.00;97192.89;106261;1256;61332;-79
2023/02/04 01:27:16;;;;;;;8.30;3.30;;;;;;;2.47;100.00;97188.72;106265;1254;61317;-77
2023/02/04 01:29:42;;;;;;;8.10;4.00;;;;;;;2.47;100.00;97180.38;106320;1256;61253;-79
2023/02/04 01:32:08;;;;;;;5.60;2.90;;;;;;;2.47;100.00;97176.67;106279;1254;61257;-77
2023/02/04 01:34:35;;;;;;;10.10;4.60;;;;;;;2.47;100.00;97175.27;106238;1254;61212;-77
2023/02/04 01:37:01;;;;;;;5.20;2.20;;;;;;;2.46;100.00;97175.17;106306;1254;61353;-77
2023/02/04 01:39:27;;;;;;;5.00;3.10;;;;;;;2.44;100.00;97165.04;106297;1251;61100;-77
2023/02/04 01:41:54;;;;;;;6.60;3.50;;;;;;;2.42;100.00;97165.97;106280;1251;61403;-77
2023/02/04 01:44:20;;;;;;;7.10;3.30;;;;;;;2.39;100.00;97164.02;106298;1251;62264;-79
2023/02/04 01:46:47;;;;;;;3.80;2.10;;;;;;;2.37;100.00;97159.00;106344;1256;61243;-77
2023/02/04 01:49:13;;;;;;;3.90;2.10;;;;;;;2.36;100.00;97157.93;106305;1251;61319;-77
2023/02/04 01:51:39;;;;;;;5.40;1.90;;;;;;;2.37;100.00;97154.41;106355;1251;61793;-79
2023/02/04 01:54:09;;;;;;;2.10;1.60;;;;;;;2.38;100.00;97155.53;106340;1251;61234;-79
2023/02/04 01:56:36;;;;;;;4.10;1.60;;;;;;;2.38;100.00;97152.17;106335;1254;74544;-79
2023/02/04 01:59:12;;;;;;;1.20;0.90;;;;;;;2.41;100.00;97156.34;106086;1259;61282;-79
2023/02/04 02:01:42;;;;;;;2.80;1.70;;;;;;;2.42;100.00;97154.42;106315;1256;70960;-79
2023/02/04 02:04:09;;;;;;;2.80;1.70;;;;;;;2.42;100.00;97159.57;106245;1254;61282;-76
2023/02/04 02:06:37;;;;;;;3.00;1.50;;;;;;;2.43;100.00;97158.77;106289;1252;61343;-76
2023/02/04 02:09:03;;;;;;;2.60;1.30;;;;;;;2.43;100.00;97160.21;106378;1256;74234;-76
2023/02/04 02:11:30;;;;;;;3.00;1.80;;;;;;;2.43;100.00;97162.78;106049;1254;70056;-79
2023/02/04 02:13:56;;;;;;;2.30;1.40;;;;;;;2.43;100.00;97162.30;106116;1262;61275;-76
2023/02/04 02:16:22;;;;;;;1.70;1.10;;;;;;;2.43;100.00;97156.63;106284;1255;61310;-79
2023/02/04 02:18:49;;;;;;;5.40;2.50;;;;;;;2.43;100.00;97157.44;106268;1256;61373;-76
2023/02/04 02:21:17;;;;;;;5.00;2.50;;;;;;;2.44;100.00;97155.73;106034;1254;73529;-77
2023/02/04 02:23:49;;;;;;;5.70;2.30;;;;;;;2.44;100.00;97159.30;106089;1254;71006;-79
2023/02/04 02:26:15;;;;;;;4.10;2.20;;;;;;;2.46;100.00;97155.48;106100;1259;70892;-79
2023/02/04 02:28:42;;;;;;;3.70;1.50;;;;;;;2.46;100.00;97152.11;106005;1257;61316;-79
2023/02/04 02:31:08;;;;;;;4.00;2.50;;;;;;;2.46;100.00;97155.59;106051;1257;61910;-79
2023/02/04 02:33:35;;;;;;;3.40;1.60;;;;;;;2.47;100.00;97150.25;106054;1254;61138;-77
2023/02/04 02:36:02;;;;;;;3.70;2.00;;;;;;;2.48;100.00;97157.08;106265;1256;62289;-77
2023/02/04 02:38:28;;;;;;;1.80;1.20;;;;;;;2.48;100.00;97174.29;106231;1256;61262;-79
2023/02/04 02:40:54;;;;;;;3.20;1.80;;;;;;;2.48;100.00;97171.24;106286;1251;61234;-77
2023/02/04 02:43:22;;;;;;;2.90;1.60;;;;;;;2.44;100.00;97177.87;106295;1256;61266;-79
2023/02/04 02:45:49;;;;;;;2.80;1.40;;;;;;;2.39;100.00;97172.78;106212;1251;74095;-79
2023/02/04 02:48:16;;;;;;;3.20;2.10;;;;;;;2.36;100.00;97170.76;106421;1256;69910;-79
2023/02/04 02:50:42;;;;;;;4.70;1.80;;;;;;;2.32;100.00;97177.08;106279;1251;61175;-79
2023/02/04 02:53:12;;;;;;;2.70;1.50;;;;;;;2.26;100.00;97174.81;106329;1257;61259;-77
2023/02/04 02:55:39;;;;;;;2.70;1.30;;;;;;;2.21;100.00;97178.64;106318;1257;61808;-78
2023/02/04 02:58:14;;;;;;;3.80;1.70;;;;;;;2.16;100.00;97174.73;106301;1254;72478;-79
2023/02/04 03:00:40;;;;;;;2.80;1.40;;;;;;;2.11;100.00;97180.84;106310;1256;70029;-77
2023/02/04 03:03:13;;;;;;;1.60;1.10;;;;;;;2.07;100.00;97181.71;106232;1254;61157;-79
2023/02/04 03:05:41;;;;;;;9.30;3.10;;;;;;;2.04;100.00;97190.48;106361;1252;61265;-77
2023/02/04 03:08:08;;;;;;;5.90;3.40;;;;;;;1.95;100.00;97195.42;106265;1254;61209;-79
2023/02/04 03:10:35;;;;;;;8.00;3.00;;;;;;;1.86;100.00;97198.80;106288;1258;73384;-77
2023/02/04 03:13:02;;;;;;;2.90;1.70;;;;;;;1.77;100.00;97211.70;106290;1256;71133;-77
2023/02/04 03:15:28;;;;;;;5.00;1.90;;;;;;;1.67;100.00;97208.30;106264;1254;61227;-77
2023/02/04 03:17:55;;;;;;;2.70;1.90;;;;;;;1.58;100.00;97218.39;106018;1260;61147;-79
2023/02/04 03:20:23;;;;;;;2.30;1.70;;;;;;;1.42;100.00;97225.05;106276;1256;61230;-79
2023/02/04 03:22:50;;;;;;;6.90;2.10;;;;;;;1.25;100.00;97226.98;106246;1257;74597;-77
2023/02/04 03:25:16;;;;;;;2.60;1.60;;;;;;;1.05;100.00;97236.93;106207;1254;71100;-79
2023/02/04 03:27:43;;;;;;;3.50;1.40;;;;;;;0.93;100.00;97237.65;106262;1256;61304;-77
2023/02/04 03:30:09;;;;;;;4.80;2.30;;;;;;;0.87;100.00;97242.12;106293;1253;61281;-77
2023/02/04 03:32:36;;;;;;;7.90;2.30;;;;;;;0.83;100.00;97242.27;106235;1254;61320;-79
2023/02/04 03:35:02;;;;;;;6.30;2.50;;;;;;;0.81;100.00;97245.63;106261;1254;61250;-77
2023/02/04 03:37:29;;;;;;;2.70;1.40;;;;;;;0.80;100.00;97247.55;106090;1255;61225;-79
2023/02/04 03:39:55;;;;;;;7.10;3.00;;;;;;;0.80;100.00;97257.08;106271;1256;61341;-78
2023/02/04 03:42:21;;;;;;;4.40;1.70;;;;;;;0.79;100.00;97261.39;106325;1256;61396;-77
2023/02/04 03:44:48;;;;;;;3.00;1.60;;;;;;;0.79;100.00;97270.17;106345;1257;61297;-77
2023/02/04 03:47:14;;;;;;;4.10;3.70;;;;;;;0.74;100.00;97271.20;106274;1252;61473;-77
2023/02/04 03:49:40;;;;;;;4.90;3.80;;;;;;;0.74;100.00;97277.86;106299;1252;61345;-79
2023/02/04 03:52:07;;;;;;;8.70;4.60;;;;;;;0.72;100.00;97277.23;106308;1256;61330;-77
2023/02/04 03:54:33;;;;;;;6.00;3.90;;;;;;;0.69;100.00;97282.14;106271;1255;62744;-77
2023/02/04 03:57:00;;;;;;;5.30;4.10;;;;;;;0.65;100.00;97284.76;106274;1256;61345;-76
2023/02/04 03:59:26;;;;;;;3.30;2.30;;;;;;;0.61;100.00;97282.80;106192;1255;158710;-77
2023/02/04 04:01:52;;;;;;;8.20;6.20;;;;;;;0.60;100.00;97287.90;106239;1256;62337;-79
2023/02/04 04:04:19;;;;;;;10.90;7.00;;;;;;;0.57;100.00;97290.45;106249;1256;61367;-77
2023/02/04 04:06:46;;;;;;;12.20;8.80;;;;;;;0.53;100.00;97293.64;106202;1256;62363;-78
2023/02/04 04:09:12;;;;;;;11.10;6.70;;;;;;;0.51;100.00;97304.96;106271;1256;61397;-78
2023/02/04 04:11:38;;;;;;;15.40;7.80;;;;;;;0.51;100.00;97307.33;106276;1256;61302;-77
2023/02/04 04:14:05;;;;;;;11.20;6.80;;;;;;;0.51;100.00;97315.20;106297;1256;61289;-79
2023/02/04 04:16:31;;;;;;;20.10;10.20;;;;;;;0.48;100.00;97317.23;106276;1257;61551;-77
2023/02/04 04:18:58;;;;;;;15.20;9.80;;;;;;;0.46;100.00;97318.90;106244;1266;61272;-79
2023/02/04 04:21:24;;;;;;;9.00;6.10;;;;;;;0.46;100.00;97323.38;106263;1257;61268;-77
2023/02/04 04:23:50;;;;;;;7.20;4.60;;;;;;;0.46;100.00;97328.60;106234;1257;61198;-79
2023/02/04 04:26:17;;;;;;;5.50;3.90;;;;;;;0.46;100.00;97334.20;106252;1254;60283;-79
2023/02/04 04:28:43;;;;;;;5.90;3.40;;;;;;;0.48;100.00;97340.16;106288;1254;61358;-77
2023/02/04 04:31:10;;;;;;;2.30;1.70;;;;;;;0.49;100.00;97349.30;106263;1254;61256;-79
2023/02/04 04:33:37;;;;;;;3.00;1.60;;;;;;;0.51;100.00;97353.02;106283;1257;62307;-78
2023/02/04 04:36:05;;;;;;;2.20;1.30;;;;;;;0.51;100.00;97366.36;106291;1257;61362;-79
2023/02/04 04:38:31;;;;;;;2.80;1.00;;;;;;;0.50;100.00;97375.22;106283;1254;61241;-76
2023/02/04 04:40:58;;;;;;;1.40;1.10;;;;;;;0.49;100.00;97379.42;106295;1256;61272;-77
2023/02/04 04:43:24;;;;;;;5.80;4.60;;;;;;;0.48;100.00;97387.40;106295;1257;61361;-79
2023/02/04 04:45:50;;;;;;;2.80;2.10;;;;;;;0.45;100.00;97391.71;106249;1257;62106;-77
2023/02/04 04:48:17;;;;;;;4.60;3.20;;;;;;;0.43;100.00;97394.02;106271;1254;61342;-79
2023/02/04 04:50:43;;;;;;;5.60;4.60;;;;;;;0.42;100.00;97404.37;106255;1257;61329;-79
2023/02/04 04:53:10;;;;;;;4.30;3.60;;;;;;;0.39;100.00;97416.88;106282;1257;61237;-79
2023/02/04 04:55:37;;;;;;;7.70;5.90;;;;;;;0.34;100.00;97431.05;106229;1260;61291;-78
2023/02/04 04:58:04;;;;;;;5.90;3.00;;;;;;;0.31;100.00;97438.05;106196;1255;61352;-77
2023/02/04 05:00:31;;;;;;;5.80;4.00;;;;;;;0.26;100.00;97449.91;106292;1256;74585;-79
2023/02/04 05:02:58;;;;;;;3.10;2.40;;;;;;;0.21;100.00;97456.13;106245;1256;61714;-79
2023/02/04 05:05:24;;;;;;;3.20;2.80;;;;;;;0.18;100.00;97467.01;106365;1255;71786;-77
2023/02/04 05:07:52;;;;;;;4.20;2.50;;;;;;;0.14;100.00;97480.26;106283;1257;61404;-76
2023/02/04 05:10:19;;;;;;;6.00;2.20;;;;;;;0.09;100.00;97496.52;106310;1256;61242;-78
2023/02/04 05:12:45;;;;;;;8.20;3.30;;;;;;;0.01;100.00;97516.17;106256;1256;73836;-77
2023/02/04 05:15:12;;;;;;;5.50;3.30;;;;;;;-0.06;100.00;97544.52;106277;1254;61230;-78
2023/02/04 05:17:38;;;;;;;7.70;3.90;;;;;;;-0.18;100.00;97570.94;106271;1254;61315;-76
2023/02/04 05:20:05;;;;;;;7.40;4.40;;;;;;;-0.32;100.00;97601.20;106277;1257;62012;-78
2023/02/04 05:22:31;;;;;;;9.30;5.40;;;;;;;-0.52;100.00;97615.34;106286;1257;61307;-78
2023/02/04 05:24:58;;;;;;;10.00;6.00;;;;;;;-0.62;100.00;97637.38;106335;1257;61289;-78
2023/02/04 05:27:24;;;;;;;9.30;6.20;;;;;;;-0.69;100.00;97663.77;106018;1254;61325;-78
2023/02/04 05:29:50;;;;;;;7.80;5.60;;;;;;;-0.78;100.00;97672.99;106265;1257;61314;-77
2023/02/04 05:32:17;;;;;;;10.40;6.50;;;;;;;-0.84;100.00;97696.09;106270;1255;61351;-77
2023/02/04 05:34:43;;;;;;;11.30;7.00;;;;;;;-0.88;100.00;97719.89;106271;1257;61313;-77
2023/02/04 05:37:10;;;;;;;10.40;6.30;;;;;;;-0.97;100.00;97740.02;106252;1254;61357;-78
2023/02/04 05:39:36;;;;;;;10.80;7.20;;;;;;;-1.06;100.00;97744.34;106237;1254;61333;-77
2023/02/04 05:42:02;;;;;;;12.80;7.20;;;;;;;-1.07;100.00;97769.02;106243;1257;61343;-76
2023/02/04 05:44:29;;;;;;;13.60;7.60;;;;;;;-1.10;100.00;97783.68;106242;1255;61312;-78
2023/02/04 05:46:55;;;;;;;8.40;5.30;;;;;;;-1.15;100.00;97804.77;106274;1257;61313;-78
2023/02/04 05:49:23;;;;;;;11.30;4.50;;;;;;;-1.18;100.00;97813.56;106400;1256;61266;-78
2023/02/04 05:51:50;;;;;;;11.40;5.90;;;;;;;-1.26;100.00;97835.89;106269;1257;70009;-76
2023/02/04 05:54:19;;;;;;;7.10;4.10;;;;;;;-1.32;100.00;97863.88;106268;1257;61093;-78
2023/02/04 05:56:46;;;;;;;9.20;5.90;;;;;;;-1.44;100.00;97869.61;105993;1259;61212;-77
2023/02/04 05:59:12;;;;;;;12.50;7.80;;;;;;;-1.47;100.00;97884.42;106293;1256;61233;-78
2023/02/04 06:01:39;;;;;;;9.50;5.50;;;;;;;-1.49;100.00;97906.02;106271;1254;61227;-77
2023/02/04 06:04:05;;;;;;;10.30;5.00;;;;;;;-1.53;100.00;97921.31;106301;1254;61410;-78
2023/02/04 06:06:31;;;;;;;9.10;5.30;;;;;;;-1.54;100.00;97934.89;106253;1258;61263;-78
2023/02/04 06:08:58;;;;;;;11.90;6.60;;;;;;;-1.57;100.00;97954.80;106239;1256;61253;-78
2023/02/04 06:11:24;;;;;;;9.40;5.40;;;;;;;-1.61;100.00;97965.25;106236;1254;61280;-78
2023/02/04 06:13:51;;;;;;;10.50;5.50;;;;;;;-1.67;100.00;97973.67;106424;1257;61320;-78
2023/02/04 06:16:18;;;;;;;10.10;6.20;;;;;;;-1.62;100.00;97986.03;106029;1260;61353;-76
2023/02/04 06:18:44;;;;;;;7.90;4.70;;;;;;;-1.64;100.00;98007.45;106046;1258;61294;-78
2023/02/04 06:21:10;;;;;;;6.40;4.30;;;;;;;-1.68;100.00;98010.84;106290;1252;61429;-78
2023/02/04 06:23:37;;;;;;;9.90;4.50;;;;;;;-1.74;100.00;98031.21;106275;1256;61317;-77
2023/02/04 06:26:03;;;;;;;11.80;4.70;;;;;;;-1.73;100.00;98043.27;106162;1254;61771;-77
2023/02/04 06:28:29;;;;;;;8.00;5.10;;;;;;;-1.75;100.00;98055.41;105971;1254;61381;-78
2023/02/04 06:30:56;;;;;;;10.90;8.00;;;;;;;-1.75;100.00;98078.75;106179;1255;61251;-78
2023/02/04 06:33:23;;;;;;;10.00;6.10;;;;;;;-1.76;100.00;98090.07;106213;1254;61273;-78
2023/02/04 06:35:49;;;;;;;6.90;4.50;;;;;;;-1.78;100.00;98110.88;106208;1255;61307;-76
2023/02/04 06:38:16;;;;;;;7.60;5.10;;;;;;;-1.76;100.00;98122.36;106221;1256;61247;-77
2023/02/04 06:40:42;;;;;;;9.30;5.00;;;;;;;-1.77;100.00;98140.14;105969;1259;61352;-78
2023/02/04 06:43:09;;;;;;;8.10;5.80;;;;;;;-1.77;100.00;98143.16;106049;1253;61134;-77
2023/02/04 06:45:35;;;;;;;10.20;5.80;;;;;;;-1.75;100.00;98165.90;106312;1254;61337;-78
2023/02/04 06:48:02;;;;;;;13.00;5.40;;;;;;;-1.79;100.00;98181.09;106262;1254;61217;-78
2023/02/04 06:50:28;;;;;;;7.90;4.00;;;;;;;-1.81;100.00;98186.38;106313;1254;61362;-78
2023/02/04 06:52:54;;;;;;;10.10;5.30;;;;;;;-1.85;100.00;98203.58;106299;1257;59886;-78
2023/02/04 06:55:21;;;;;;;6.80;3.40;;;;;;;-1.87;100.00;98213.34;106245;1255;61339;-78
2023/02/04 06:57:47;;;;;;;12.80;7.60;;;;;;;-1.93;100.00;98231.03;106276;1254;61266;-77
2023/02/04 07:00:14;;;;;;;11.40;6.80;;;;;;;-1.99;100.00;98240.42;106535;1257;61345;-76
2023/02/04 07:02:41;;;;;;;27.80;18.30;;;;;;;-1.98;100.00;98251.95;106272;1255;61244;-78
2023/02/04 07:05:07;;;;;;;12.20;6.50;;;;;;;-1.96;100.00;98262.31;106326;1256;61464;-78
2023/02/04 07:07:34;;;;;;;23.20;8.80;;;;;;;-2.00;100.00;98287.48;106270;1256;62034;-78
2023/02/04 07:10:01;;;;;;;14.10;9.30;;;;;;;-2.01;100.00;98292.71;106404;1256;61358;-77
2023/02/04 07:12:27;;;;;;;38.80;17.40;;;;;;;-1.98;100.00;98303.15;106409;1254;61381;-77
2023/02/04 07:14:54;;;;;;;18.70;11.30;;;;;;;-2.02;100.00;98314.23;106540;1254;61295;-77
2023/02/04 07:17:20;;;;;;;14.10;9.20;;;;;;;-2.03;100.00;98328.73;106425;1254;61288;-78
2023/02/04 07:19:47;;;;;;;14.90;8.50;;;;;;;-2.08;100.00;98335.76;106518;1256;61260;-77
2023/02/04 07:22:13;;;;;;;9.90;4.90;;;;;;;-2.09;100.00;98347.14;106359;1257;61354;-77
2023/02/04 07:24:40;;;;;;;9.00;6.10;;;;;;;-2.15;100.00;98357.50;106757;1254;61329;-77
2023/02/04 07:27:06;;;;;;;7.50;5.10;;;;;;;-2.14;100.00;98371.90;106380;1254;61393;-78
2023/02/04 07:29:32;;;;;;;15.30;8.90;;;;;;;-2.16;100.00;98387.68;106536;1254;61336;-77
2023/02/04 07:31:59;;;;;;;10.60;6.30;;;;;;;-2.14;100.00;98408.13;106071;1254;61350;-76
2023/02/04 07:34:25;;;;;;;18.70;7.70;;;;;;;-2.12;100.00;98417.64;106359;1254;61317;-76
2023/02/04 07:36:52;;;;;;;25.70;15.20;;;;;;;-2.07;100.00;98419.98;106431;1256;61218;-77
2023/02/04 07:39:18;;;;;;;18.20;11.50;;;;;;;-2.07;100.00;98431.00;106532;1254;61237;-78
2023/02/04 07:41:44;;;;;;;11.40;7.10;;;;;;;-2.04;100.00;98444.98;106420;1254;61323;-77
2023/02/04 07:44:11;;;;;;;15.90;8.40;;;;;;;-2.04;100.00;98450.46;106505;1255;61359;-79
2023/02/04 07:46:37;;;;;;;7.80;5.20;;;;;;;-2.02;100.00;98462.80;106235;1254;61359;-76
2023/02/04 07:49:03;;;;;;;11.00;7.30;;;;;;;-2.01;100.00;98468.69;106441;1254;61238;-79
2023/02/04 07:51:30;;;;;;;10.50;6.40;;;;;;;-2.03;100.00;98479.55;106460;1254;61357;-78
2023/02/04 07:53:56;;;;;;;14.60;8.70;;;;;;;-2.04;100.00;98490.29;106565;1251;62781;-77
2023/02/04 07:56:23;;;;;;;7.80;4.20;;;;;;;-2.07;100.00;98498.58;106533;1251;61856;-76
2023/02/04 07:58:49;;;;;;;9.90;5.80;;;;;;;-2.09;100.00;98499.13;107710;1251;61334;-77
2023/02/04 08:01:15;;;;;;;16.20;11.30;;;;;;;-2.06;100.00;98514.24;109484;1254;58870;-79
2023/02/04 08:03:42;;;;;;;10.20;5.50;;;;;;;-2.03;100.00;98521.23;108226;1254;59420;-77
2023/02/04 08:06:09;;;;;;;12.50;7.90;;;;;;;-2.01;100.00;98531.42;106588;1251;61265;-78
2023/02/04 08:08:35;;;;;;;23.00;14.30;;;;;;;-1.99;100.00;98535.23;106309;1257;62660;-77
2023/02/04 08:11:01;;;;;;;14.70;9.40;;;;;;;-1.94;100.00;98543.35;106282;1257;61349;-76
2023/02/04 08:13:28;;;;;;;10.40;7.50;;;;;;;-1.96;100.00;98546.52;106275;1257;62345;-77
2023/02/04 08:15:54;;;;;;;18.50;9.10;;;;;;;-1.98;100.00;98553.84;106946;1256;61279;-76
2023/02/04 08:18:21;;;;;;;11.30;5.90;;;;;;;-1.97;100.00;98560.64;106260;1257;61315;-79
2023/02/04 08:20:47;;;;;;;9.70;5.20;;;;;;;-2.01;100.00;98566.08;106267;1252;61272;-78
2023/02/04 08:23:14;;;;;;;36.00;17.50;;;;;;;-1.99;100.00;98573.44;106433;1257;61260;-78
2023/02/04 08:25:40;;;;;;;12.80;6.20;;;;;;;-2.02;100.00;98579.95;106305;1251;61198;-76
2023/02/04 08:28:07;;;;;;;23.90;15.50;;;;;;;-1.98;100.00;98584.49;106431;1251;61256;-77
2023/02/04 08:30:33;;;;;;;58.20;24.90;;;;;;;-1.98;100.00;98599.98;106278;1251;61219;-79
2023/02/04 08:32:59;;;;;;;60.60;25.20;;;;;;;-2.03;100.00;98609.98;106287;1257;61211;-78
2023/02/04 08:35:26;;;;;;;32.80;16.40;;;;;;;-1.95;100.00;98613.05;106359;1257;61342;-76
2023/02/04 08:37:52;;;;;;;11.80;6.60;;;;;;;-1.96;100.00;98623.88;106237;1254;73573;-79
2023/02/04 08:40:19;;;;;;;30.90;24.90;;;;;;;-1.89;100.00;98624.82;106305;1254;61342;-77
2023/02/04 08:42:45;;;;;;;24.30;17.20;;;;;;;-1.90;100.00;98624.92;106186;1257;61219;-78
2023/02/04 08:45:12;;;;;;;31.40;19.50;;;;;;;-1.91;100.00;98629.48;106229;1257;61205;-77
2023/02/04 08:47:38;;;;;;;16.20;9.80;;;;;;;-1.83;100.00;98633.84;106415;1254;61304;-79
2023/02/04 08:50:05;;;;;;;19.10;10.70;;;;;;;-1.82;100.00;98637.24;106521;1251;61314;-77
2023/02/04 08:52:31;;;;;;;38.70;31.40;;;;;;;-1.79;100.00;98642.20;106090;1251;70228;-79
2023/02/04 08:54:58;;;;;;;66.10;59.50;;;;;;;-1.81;100.00;98642.66;106251;1256;61228;-77
2023/02/04 08:57:24;;;;;;;26.70;21.70;;;;;;;-1.76;100.00;98653.63;106431;1257;61311;-79
2023/02/04 08:59:50;;;;;;;20.90;15.80;;;;;;;-1.75;100.00;98665.06;106280;1251;61300;-79
2023/02/04 09:02:17;;;;;;;13.60;9.40;;;;;;;-1.74;100.00;98679.33;106289;1251;61273;-77
2023/02/04 09:04:43;;;;;;;37.90;20.20;;;;;;;-1.78;100.00;98685.83;106318;1253;61458;-76
2023/02/04 09:07:10;;;;;;;21.00;13.70;;;;;;;-1.76;100.00;98691.15;106203;1254;61339;-76
2023/02/04 09:09:36;;;;;;;142.90;60.60;;;;;;;-1.74;100.00;98700.39;106338;1254;61358;-79
2023/02/04 09:12:02;;;;;;;123.60;87.30;;;;;;;-1.67;100.00;98707.46;106706;1251;61327;-77
2023/02/04 09:14:29;;;;;;;52.70;47.00;;;;;;;-1.66;100.00;98714.19;106257;1251;61231;-79
2023/02/04 09:16:55;;;;;;;33.00;20.50;;;;;;;-1.66;100.00;98718.30;106256;1256;61261;-79
2023/02/04 09:19:24;;;;;;;17.80;13.60;;;;;;;-1.63;100.00;98726.52;106265;1254;61709;-78
2023/02/04 09:21:52;;;;;;;21.40;12.70;;;;;;;-1.62;100.00;98738.73;106210;1254;61192;-77
2023/02/04 09:24:18;;;;;;;12.10;8.40;;;;;;;-1.51;100.00;98740.31;106253;1251;61233;-79
2023/02/04 09:26:45;;;;;;;17.70;10.70;;;;;;;-1.47;100.00;98749.81;106189;1252;74616;-76
2023/02/04 09:29:11;;;;;;;11.60;7.60;;;;;;;-1.42;100.00;98759.85;106266;1257;61349;-77
2023/02/04 09:31:38;;;;;;;13.70;9.80;;;;;;;-1.42;100.00;98763.20;106220;1254;61359;-77
2023/02/04 09:34:04;;;;;;;28.70;17.30;;;;;;;-1.40;100.00;98767.94;106278;1254;61225;-79
2023/02/04 09:36:36;;;;;;;240.00;193.60;;;;;;;-1.39;100.00;98768.88;106276;1253;61236;-77
2023/02/04 09:39:04;;;;;;;62.50;41.00;;;;;;;-1.36;100.00;98780.42;106271;1256;66009;-76
2023/02/04 09:41:35;;;;;;;30.50;21.20;;;;;;;-1.37;100.00;98795.88;106589;1257;71675;-78
2023/02/04 09:44:03;;;;;;;134.70;97.00;;;;;;;-1.32;100.00;98797.61;106507;1251;72529;-77
2023/02/04 09:46:29;;;;;;;22.00;15.60;;;;;;;-1.27;100.00;98808.89;106312;1255;61323;-79
2023/02/04 09:48:57;;;;;;;40.30;23.60;;;;;;;-1.19;100.00;98812.69;106328;1251;61207;-79
2023/02/04 09:51:26;;;;;;;214.20;158.30;;;;;;;-1.16;100.00;98817.83;106277;1252;74517;-77
2023/02/04 09:53:55;;;;;;;18.20;14.50;;;;;;;-1.08;100.00;98821.32;106309;1256;62420;-79
2023/02/04 09:56:22;;;;;;;48.00;35.80;;;;;;;-1.10;100.00;98827.23;106241;1257;72518;-77
2023/02/04 09:58:48;;;;;;;38.60;31.10;;;;;;;-1.05;100.00;98832.00;105991;1254;61345;-79
2023/02/04 10:01:18;;;;;;;20.10;13.70;;;;;;;-1.03;100.00;98837.69;105991;1254;61329;-79
2023/02/04 10:03:46;;;;;;;31.50;27.40;;;;;;;-1.04;100.00;98846.09;106240;1252;73327;-76
2023/02/04 10:06:18;;;;;;;11.20;7.70;;;;;;;-1.03;100.00;98848.89;106230;1254;70556;-77
2023/02/04 10:08:45;;;;;;;16.20;10.50;;;;;;;-0.89;99.59;98847.58;106385;1253;72960;-77
2023/02/04 10:11:12;;;;;;;12.20;9.50;;;;;;;-0.84;99.71;98842.20;105998;1255;61841;-77
2023/02/04 10:13:44;;;;;;;8.70;6.60;;;;;;;-0.84;99.97;98836.69;106036;1254;63270;-77
2023/02/04 10:16:13;;;;;;;12.30;8.10;;;;;;;-0.98;100.00;98842.91;106355;1254;64789;-76
2023/02/04 10:18:39;;;;;;;13.10;6.90;;;;;;;-1.03;99.89;98844.14;105988;1256;62522;-78
2023/02/04 10:21:25;;;;;;;20.90;13.30;;;;;;;-1.02;100.00;98840.67;106087;1257;61236;-77
2023/02/04 10:23:54;;;;;;;23.90;17.60;;;;;;;-0.93;100.00;98843.73;106153;1257;61301;-78
2023/02/04 10:26:21;;;;;;;10.60;7.30;;;;;;;-0.88;100.00;98847.12;106342;1251;61249;-79
2023/02/04 10:28:50;;;;;;;10.20;6.90;;;;;;;-0.84;99.91;98856.99;106317;1254;73434;-77
2023/02/04 10:31:30;;;;;;;;;;;;;;;-0.89;100.00;98853.77;106292;1254;70932;-76
2023/02/04 10:34:22;;;;;;;45.60;21.70;;;;;;;-0.98;100.00;98854.32;106252;1251;71409;-79
2023/02/04 10:36:51;;;;;;;30.50;18.80;;;;;;;-1.11;100.00;98856.64;106283;1254;61237;-77
2023/02/04 10:39:19;;;;;;;27.30;18.30;;;;;;;-1.10;100.00;98855.13;106346;1254;61186;-79
2023/02/04 10:42:06;;;;;;;24.20;13.20;;;;;;;-1.06;100.00;98858.38;106179;1256;74690;-79
2023/02/04 10:44:38;;;;;;;15.40;10.60;;;;;;;-1.11;100.00;98866.39;106295;1256;70080;-79
2023/02/04 10:47:14;;;;;;;12.20;7.40;;;;;;;-1.15;100.00;98874.40;106357;1254;73166;-76
2023/02/04 10:49:47;;;;;;;17.60;12.40;;;;;;;-1.34;100.00;98873.52;106275;1254;61253;-79
2023/02/04 10:52:15;;;;;;;13.40;7.90;;;;;;;-1.38;100.00;98882.91;106028;1260;63349;-79
2023/02/04 10:54:41;;;;;;;44.60;25.80;;;;;;;-1.35;100.00;98881.99;106307;1251;74963;-76
2023/02/04 10:57:28;;;;;;;23.30;14.30;;;;;;;-1.14;100.00;98886.27;106332;1251;61271;-77
2023/02/04 10:59:56;;;;;;;16.20;9.40;;;;;;;-0.80;100.00;98881.52;106287;1256;71040;-78
2023/02/04 11:02:43;;;;;;;13.50;6.60;;;;;;;-0.77;100.00;98884.26;106315;1251;61340;-77
2023/02/04 11:05:20;;;;;;;19.20;9.20;;;;;;;-0.86;100.00;98880.54;106381;1256;61131;-77
2023/02/04 11:07:47;;;;;;;11.50;8.60;;;;;;;-0.80;99.93;98885.20;106165;1251;74529;-79
2023/02/04 11:10:15;;;;;;;12.60;8.60;;;;;;;-0.91;97.80;98881.70;106297;1254;70500;-77
2023/02/04 11:12:51;;;;;;;8.10;4.90;;;;;;;-0.94;97.15;98882.60;106327;1256;71955;-77
2023/02/04 11:15:44;;;;;;;6.40;3.60;;;;;;;-0.94;95.54;98895.52;106323;1252;61250;-77
2023/02/04 11:18:19;;;;;;;14.90;8.30;;;;;;;-0.93;93.03;98897.13;106330;1251;61237;-79